Time;durP1;ratioP1;P1;durP2;ratioP2;P2;SDS_P1;SDS_P2;PMS_P1;PMS_P2;Temp;Humidity;BMP_temperature;BMP_pressure;BME280_temperature;BME280_humidity;BME280_pressure;Samples;Min_cycle;Max_cycle;Signal;HPM_P1;HPM_P2
2022/10/02 00:00:18;;;;;;;0.43;0.43;;;18.40;60.70;;;;;;5063030;28;20024;-64
2022/10/02 00:02:52;;;;;;;0.30;0.30;;;18.40;60.70;;;;;;5062957;28;20028;-64
2022/10/02 00:05:27;;;;;;;0.38;0.30;;;18.40;60.70;;;;;;5062971;28;20017;-65
2022/10/02 00:08:02;;;;;;;0.30;0.30;;;18.40;60.60;;;;;;5062950;28;20197;-64
2022/10/02 00:10:53;;;;;;;0.52;0.52;;;18.40;60.70;;;;;;5062964;28;20185;-64
2022/10/02 00:13:36;;;;;;;0.80;0.60;;;18.40;60.70;;;;;;5062121;28;20086;-64
2022/10/02 00:16:05;;;;;;;0.57;0.57;;;18.40;60.70;;;;;;5062895;28;20190;-63
2022/10/02 00:18:35;;;;;;;1.05;0.50;;;18.40;60.70;;;;;;5065193;28;20023;-63
2022/10/02 00:21:35;;;;;;;0.50;0.50;;;18.50;60.70;;;;;;5066547;28;20013;-63
2022/10/02 00:24:04;;;;;;;0.52;0.35;;;18.40;60.70;;;;;;5062485;28;20087;-63
2022/10/02 00:26:34;;;;;;;;;;;18.40;60.60;;;;;;5066886;28;20025;-64
2022/10/02 00:29:18;;;;;;;0.52;0.35;;;18.50;60.70;;;;;;5066405;28;19900;-65
2022/10/02 00:31:53;;;;;;;0.63;0.55;;;18.40;60.60;;;;;;5066380;28;20032;-65
2022/10/02 00:34:44;;;;;;;0.40;0.40;;;18.40;60.60;;;;;;5066255;28;20020;-64
2022/10/02 00:37:40;;;;;;;0.47;0.47;;;18.50;60.70;;;;;;5066306;28;20039;-63
2022/10/02 00:40:36;;;;;;;0.52;0.45;;;18.40;60.60;;;;;;5055423;28;20136;-64
2022/10/02 00:43:03;;;;;;;0.93;0.60;;;18.40;60.60;;;;;;5066184;28;20058;-64
2022/10/02 00:45:40;;;;;;;0.40;0.40;;;18.40;60.60;;;;;;5066057;28;20080;-64
2022/10/02 00:48:15;;;;;;;1.27;0.85;;;18.40;60.70;;;;;;5066070;28;20217;-63
2022/10/02 00:50:56;;;;;;;0.32;0.30;;;18.40;60.70;;;;;;5066027;28;20366;-63
2022/10/02 00:53:59;;;;;;;0.40;0.40;;;18.40;60.70;;;;;;5065921;28;20025;-64
2022/10/02 00:56:46;;;;;;;0.40;0.40;;;18.40;60.70;;;;;;4985135;28;20050;-64
2022/10/02 00:59:38;;;;;;;0.52;0.52;;;18.40;60.70;;;;;;5062015;28;20106;-64
2022/10/02 01:02:12;;;;;;;0.40;0.40;;;18.40;60.70;;;;;;5065833;28;20317;-62
2022/10/02 01:04:39;;;;;;;0.40;0.40;;;18.40;60.60;;;;;;5065737;28;20055;-64
2022/10/02 01:07:10;;;;;;;0.52;0.52;;;18.40;60.60;;;;;;5065690;28;20051;-64
2022/10/02 01:09:36;;;;;;;0.40;0.40;;;18.40;60.60;;;;;;5065677;28;20017;-63
2022/10/02 01:12:02;;;;;;;0.30;0.30;;;18.40;60.70;;;;;;5065581;28;20313;-63
2022/10/02 01:14:39;;;;;;;0.85;0.63;;;18.40;60.60;;;;;;5065486;28;20027;-63
2022/10/02 01:17:21;;;;;;;0.50;0.50;;;18.40;60.60;;;;;;5065528;28;20017;-64
2022/10/02 01:19:47;;;;;;;0.80;0.50;;;18.40;60.60;;;;;;5065504;28;20013;-65
2022/10/02 01:22:20;;;;;;;0.50;0.40;;;18.40;60.70;;;;;;5065251;28;20037;-63
2022/10/02 01:25:03;;;;;;;0.40;0.40;;;18.40;60.60;;;;;;5065351;28;20074;-64
2022/10/02 01:27:30;;;;;;;0.40;0.40;;;18.40;60.70;;;;;;5065355;28;20024;-63
2022/10/02 01:30:06;;;;;;;1.52;0.80;;;18.40;60.70;;;;;;5064563;28;20031;-64
2022/10/02 01:32:34;;;;;;;0.60;0.60;;;18.40;60.70;;;;;;5065259;28;20048;-64
2022/10/02 01:35:00;;;;;;;0.50;0.50;;;18.40;60.70;;;;;;5065107;28;20017;-64
2022/10/02 01:37:32;;;;;;;0.93;0.55;;;18.30;60.60;;;;;;5065104;28;20086;-64
2022/10/02 01:40:04;;;;;;;0.57;0.57;;;18.40;61.30;;;;;;5065059;28;20027;-64
2022/10/02 01:42:31;;;;;;;0.50;0.50;;;18.40;60.70;;;;;;5065005;28;20020;-64
2022/10/02 01:44:57;;;;;;;0.55;0.55;;;18.40;60.70;;;;;;5064972;28;20051;-64
2022/10/02 01:47:50;;;;;;;0.45;0.45;;;18.40;60.70;;;;;;5064942;28;20135;-65
2022/10/02 01:50:34;;;;;;;0.63;0.63;;;18.40;60.70;;;;;;5047090;28;20212;-64
2022/10/02 01:53:14;;;;;;;0.40;0.40;;;18.40;60.70;;;;;;5064776;28;20080;-63
2022/10/02 01:55:45;;;;;;;0.60;0.60;;;18.40;60.70;;;;;;5064802;28;20332;-64
2022/10/02 01:58:32;;;;;;;0.40;0.40;;;18.30;60.60;;;;;;5064700;28;20021;-64
2022/10/02 02:01:11;;;;;;;0.50;0.50;;;18.30;60.60;;;;;;5064663;28;20080;-64
2022/10/02 02:03:36;;;;;;;0.30;0.30;;;18.30;60.60;;;;;;5064630;28;20237;-63
2022/10/02 02:06:10;;;;;;;0.40;0.40;;;18.30;60.60;;;;;;5064601;28;20047;-66
2022/10/02 02:09:06;;;;;;;0.43;0.43;;;18.30;60.60;;;;;;5064548;28;20024;-64
2022/10/02 02:11:33;;;;;;;0.50;0.40;;;18.30;60.60;;;;;;5064492;28;20035;-63
2022/10/02 02:14:05;;;;;;;0.32;0.32;;;18.40;60.70;;;;;;5064330;28;20021;-64
2022/10/02 02:16:48;;;;;;;0.47;0.47;;;18.30;60.70;;;;;;5064372;28;20316;-65
2022/10/02 02:19:19;;;;;;;0.40;0.40;;;18.30;60.70;;;;;;5064329;28;20177;-63
2022/10/02 02:22:00;;;;;;;0.40;0.30;;;18.30;60.60;;;;;;5064100;28;20054;-64
2022/10/02 02:24:55;;;;;;;0.60;0.60;;;18.30;60.60;;;;;;5064473;28;20217;-63
2022/10/02 02:27:26;;;;;;;0.50;0.47;;;18.40;60.70;;;;;;5064428;28;20028;-64
2022/10/02 02:29:59;;;;;;;1.17;0.50;;;18.30;60.60;;;;;;5064149;28;20032;-63
2022/10/02 02:32:31;;;;;;;0.50;0.50;;;18.30;60.70;;;;;;5064102;28;20029;-65
2022/10/02 02:35:11;;;;;;;0.40;0.40;;;18.30;60.60;;;;;;5063929;28;20024;-64
2022/10/02 02:37:39;;;;;;;0.40;0.40;;;18.30;60.60;;;;;;5063955;28;20024;-63
2022/10/02 02:40:08;;;;;;;;;;;18.30;60.70;;;;;;5064622;28;20016;-65
2022/10/02 02:42:40;;;;;;;0.40;0.40;;;18.30;60.70;;;;;;5062988;28;19900;-63
2022/10/02 02:45:12;;;;;;;0.50;0.50;;;18.30;60.60;;;;;;5063860;28;20021;-63
2022/10/02 02:47:46;;;;;;;0.52;0.52;;;18.30;60.60;;;;;;5063816;28;20355;-64
2022/10/02 02:50:16;;;;;;;0.52;0.52;;;18.30;60.70;;;;;;5063827;28;20062;-64
2022/10/02 02:52:51;;;;;;;0.60;0.50;;;18.30;60.60;;;;;;5063688;28;20028;-63
2022/10/02 02:55:42;;;;;;;0.55;0.55;;;18.30;60.70;;;;;;5063688;28;20013;-64
2022/10/02 02:58:31;;;;;;;0.40;0.40;;;18.30;60.60;;;;;;5063654;28;20284;-65
2022/10/02 03:00:56;;;;;;;0.63;0.55;;;18.30;60.60;;;;;;5053071;28;20035;-64
2022/10/02 03:03:22;;;;;;;0.47;0.47;;;18.30;60.60;;;;;;5063597;28;20209;-63
2022/10/02 03:05:54;;;;;;;0.32;0.32;;;18.30;60.70;;;;;;5063554;28;20085;-63
2022/10/02 03:08:27;;;;;;;0.63;0.40;;;18.30;60.70;;;;;;5063540;28;20048;-64
2022/10/02 03:11:15;;;;;;;0.55;0.55;;;18.30;60.60;;;;;;5063523;28;20020;-63
2022/10/02 03:13:57;;;;;;;0.40;0.40;;;18.30;60.60;;;;;;5063412;28;20067;-63
2022/10/02 03:16:46;;;;;;;0.47;0.47;;;18.30;60.60;;;;;;5063469;28;20027;-64
2022/10/02 03:19:21;;;;;;;0.55;0.40;;;18.30;60.70;;;;;;5063408;28;20017;-64
2022/10/02 03:21:49;;;;;;;0.40;0.40;;;18.30;60.70;;;;;;5063190;28;20049;-64
2022/10/02 03:24:25;;;;;;;0.60;0.60;;;18.30;60.60;;;;;;5063432;28;20020;-65
2022/10/02 03:27:26;;;;;;;0.63;0.63;;;18.30;60.70;;;;;;5045600;28;20028;-63
2022/10/02 03:29:58;;;;;;;0.43;0.40;;;18.30;60.60;;;;;;5049610;28;20247;-64
2022/10/02 03:32:25;;;;;;;0.80;0.50;;;18.30;60.60;;;;;;5063223;28;20025;-64
2022/10/02 03:34:52;;;;;;;0.50;0.50;;;18.30;60.70;;;;;;5063171;28;20088;-64
2022/10/02 03:37:17;;;;;;;0.63;0.47;;;18.30;60.70;;;;;;5063227;28;20017;-63
2022/10/02 03:39:44;;;;;;;0.30;0.30;;;18.30;60.70;;;;;;5063178;28;20078;-65
2022/10/02 03:42:11;;;;;;;1.00;0.65;;;18.30;60.60;;;;;;5063192;28;20252;-64
2022/10/02 03:44:37;;;;;;;0.38;0.38;;;18.30;60.60;;;;;;5063149;28;20017;-64
2022/10/02 03:47:03;;;;;;;0.57;0.50;;;18.30;60.60;;;;;;5063162;28;20052;-64
2022/10/02 03:49:29;;;;;;;1.20;0.20;;;18.30;60.60;;;;;;5063105;28;20028;-63
2022/10/02 03:51:54;;;;;;;0.38;0.38;;;18.30;60.60;;;;;;5063094;28;20032;-63
2022/10/02 03:54:21;;;;;;;0.40;0.35;;;18.30;60.60;;;;;;5066821;28;20025;-63
2022/10/02 03:56:58;;;;;;;0.40;0.40;;;18.30;60.60;;;;;;5067008;28;20048;-63
2022/10/02 03:59:45;;;;;;;0.40;0.40;;;18.30;60.60;;;;;;5066993;28;20035;-62
2022/10/02 04:02:38;;;;;;;0.60;0.60;;;18.30;60.60;;;;;;5049151;28;20063;-65
2022/10/02 04:05:25;;;;;;;1.17;0.65;;;18.30;60.60;;;;;;5066768;28;20121;-63
2022/10/02 04:08:08;;;;;;;0.43;0.43;;;18.30;60.70;;;;;;5066845;28;20031;-63
2022/10/02 04:11:00;;;;;;;0.43;0.43;;;18.20;60.60;;;;;;5066832;28;20368;-64
2022/10/02 04:13:28;;;;;;;0.40;0.40;;;18.30;60.60;;;;;;5066674;28;20025;-62
2022/10/02 04:16:09;;;;;;;0.82;0.45;;;18.30;60.60;;;;;;5066671;28;20437;-63
2022/10/02 04:18:58;;;;;;;0.30;0.30;;;18.30;60.60;;;;;;5066642;28;20259;-64
2022/10/02 04:21:42;;;;;;;0.40;0.40;;;18.30;60.60;;;;;;5066603;28;20021;-64
2022/10/02 04:24:38;;;;;;;0.50;0.50;;;18.30;60.60;;;;;;5046574;28;20100;-64
2022/10/02 04:27:25;;;;;;;0.50;0.50;;;18.30;60.60;;;;;;5046505;28;20021;-64
2022/10/02 04:29:57;;;;;;;0.45;0.32;;;18.30;60.70;;;;;;5046503;28;20347;-63
2022/10/02 04:32:29;;;;;;;0.40;0.40;;;18.30;61.30;;;;;;5046439;28;20024;-63
2022/10/02 04:34:56;;;;;;;0.30;0.30;;;18.30;60.60;;;;;;5046227;28;20025;-64
2022/10/02 04:37:37;;;;;;;0.60;0.60;;;18.30;60.60;;;;;;5046300;28;20033;-63
2022/10/02 04:40:17;;;;;;;0.43;0.43;;;18.30;60.60;;;;;;5046305;28;20018;-64
2022/10/02 04:43:01;;;;;;;1.02;0.50;;;18.30;60.60;;;;;;5046261;28;20018;-64
2022/10/02 04:46:03;;;;;;;0.60;0.60;;;18.30;60.60;;;;;;5046152;28;20025;-64
2022/10/02 04:48:48;;;;;;;0.40;0.40;;;18.30;60.60;;;;;;4992566;28;20042;-63
2022/10/02 04:51:40;;;;;;;0.50;0.50;;;18.20;60.50;;;;;;5046066;28;20237;-65
2022/10/02 04:54:18;;;;;;;0.45;0.45;;;18.20;60.60;;;;;;5045972;28;20067;-64
2022/10/02 04:57:08;;;;;;;0.30;0.30;;;18.30;60.60;;;;;;5046018;28;20047;-65
2022/10/02 05:00:02;;;;;;;0.40;0.40;;;18.30;60.60;;;;;;5045945;28;20018;-65
2022/10/02 05:02:52;;;;;;;0.25;0.25;;;18.30;60.60;;;;;;5046087;28;20045;-65
2022/10/02 05:05:18;;;;;;;0.30;0.30;;;18.30;60.60;;;;;;5044744;28;20294;-63
2022/10/02 05:08:08;;;;;;;0.60;0.60;;;18.30;60.50;;;;;;5045749;28;20056;-64
2022/10/02 05:10:53;;;;;;;0.30;0.30;;;18.30;60.60;;;;;;5045724;28;20019;-64
2022/10/02 05:13:39;;;;;;;0.40;0.40;;;18.30;60.60;;;;;;5045588;28;20030;-63
2022/10/02 05:16:15;;;;;;;0.40;0.40;;;18.30;60.60;;;;;;5045089;28;20093;-65
2022/10/02 05:19:07;;;;;;;0.52;0.52;;;18.30;60.60;;;;;;5045557;28;20013;-63
2022/10/02 05:21:49;;;;;;;0.82;0.55;;;18.30;60.60;;;;;;5046073;28;20014;-63
2022/10/02 05:24:47;;;;;;;0.95;0.40;;;18.30;60.60;;;;;;5065415;28;20103;-63
2022/10/02 05:27:37;;;;;;;0.38;0.38;;;18.30;60.50;;;;;;5044569;28;20256;-64
2022/10/02 05:30:10;;;;;;;0.57;0.55;;;18.30;60.50;;;;;;5065319;28;20021;-64
2022/10/02 05:33:13;;;;;;;0.40;0.40;;;18.30;60.50;;;;;;5065129;28;20051;-63
2022/10/02 05:35:54;;;;;;;0.90;0.63;;;18.30;60.60;;;;;;5065171;28;20025;-64
2022/10/02 05:38:37;;;;;;;0.55;0.55;;;18.20;60.60;;;;;;5065164;28;20024;-64
2022/10/02 05:41:16;;;;;;;0.50;0.50;;;18.30;60.60;;;;;;5065099;28;20056;-64
2022/10/02 05:43:54;;;;;;;0.60;0.60;;;18.20;60.60;;;;;;5065055;28;20021;-65
2022/10/02 05:46:30;;;;;;;0.38;0.38;;;18.20;60.60;;;;;;5065034;28;20075;-64
2022/10/02 05:49:11;;;;;;;0.35;0.35;;;18.20;60.60;;;;;;5064975;28;20013;-64
2022/10/02 05:52:12;;;;;;;0.40;0.40;;;18.20;60.60;;;;;;5064889;28;20024;-64
2022/10/02 05:55:32;;;;;;;0.40;0.40;;;18.20;60.60;;;;;;5064751;28;20017;-63
2022/10/02 05:58:07;;;;;;;0.40;0.30;;;18.20;60.60;;;;;;4984040;28;20065;-65
2022/10/02 06:00:41;;;;;;;0.40;0.30;;;18.30;60.60;;;;;;5063315;28;20033;-63
2022/10/02 06:03:30;;;;;;;0.28;0.28;;;18.30;60.60;;;;;;5064669;28;20023;-65
2022/10/02 06:06:10;;;;;;;0.52;0.40;;;18.30;60.60;;;;;;5064631;28;20308;-64
2022/10/02 06:08:40;;;;;;;0.68;0.43;;;18.20;60.60;;;;;;5064583;28;20041;-65
2022/10/02 06:11:25;;;;;;;0.30;0.30;;;18.20;60.60;;;;;;5064735;28;20017;-64
2022/10/02 06:14:01;;;;;;;0.40;0.40;;;18.30;60.60;;;;;;5064394;28;20091;-64
2022/10/02 06:16:42;;;;;;;0.45;0.45;;;18.30;60.50;;;;;;5064193;28;20368;-64
2022/10/02 06:19:23;;;;;;;0.43;0.43;;;18.30;60.50;;;;;;5064342;28;20186;-65
2022/10/02 06:22:04;;;;;;;0.50;0.50;;;18.30;60.50;;;;;;5064097;28;20027;-64
2022/10/02 06:24:41;;;;;;;0.40;0.40;;;18.30;60.60;;;;;;5064248;28;20032;-65
2022/10/02 06:27:16;;;;;;;0.47;0.40;;;18.30;60.60;;;;;;5064197;28;20017;-64
2022/10/02 06:29:48;;;;;;;0.52;0.45;;;18.30;60.50;;;;;;5064426;28;20026;-63
2022/10/02 06:32:26;;;;;;;0.40;0.40;;;18.30;60.50;;;;;;5064166;28;20044;-63
2022/10/02 06:34:52;;;;;;;0.30;0.30;;;18.30;60.60;;;;;;5064052;28;20029;-64
2022/10/02 06:37:39;;;;;;;0.38;0.38;;;18.30;60.50;;;;;;5063981;28;20268;-63
2022/10/02 06:40:29;;;;;;;0.38;0.38;;;18.30;60.50;;;;;;5064006;28;20035;-64
2022/10/02 06:43:25;;;;;;;0.77;0.43;;;18.30;60.50;;;;;;5063921;28;20013;-64
2022/10/02 06:46:45;;;;;;;0.73;0.38;;;18.30;60.60;;;;;;5046548;28;20025;-63
2022/10/02 06:49:27;;;;;;;0.30;0.30;;;18.30;60.60;;;;;;4983154;28;20215;-64
2022/10/02 06:52:08;;;;;;;0.43;0.40;;;18.30;60.50;;;;;;5056201;28;20036;-63
2022/10/02 06:54:52;;;;;;;0.20;0.20;;;18.30;60.50;;;;;;5063683;28;20070;-63
2022/10/02 06:57:32;;;;;;;0.40;0.40;;;18.30;60.50;;;;;;5063695;28;20013;-64
2022/10/02 07:00:13;;;;;;;0.82;0.35;;;18.30;60.50;;;;;;5063699;28;20017;-64
2022/10/02 07:03:15;;;;;;;0.50;0.50;;;18.30;60.50;;;;;;5063590;28;20013;-65
2022/10/02 07:06:06;;;;;;;0.30;0.30;;;18.30;60.60;;;;;;5063583;28;20016;-63
2022/10/02 07:09:10;;;;;;;0.50;0.50;;;18.30;60.50;;;;;;5063539;28;20063;-62
2022/10/02 07:11:45;;;;;;;0.68;0.50;;;18.30;60.40;;;;;;5063512;28;20343;-64
2022/10/02 07:14:39;;;;;;;0.40;0.40;;;18.30;60.40;;;;;;5063447;28;20190;-64
2022/10/02 07:17:22;;;;;;;0.30;0.30;;;18.30;60.40;;;;;;5063478;28;20024;-64
2022/10/02 07:19:58;;;;;;;0.57;0.30;;;18.30;60.20;;;;;;5063421;28;20384;-63
2022/10/02 07:22:46;;;;;;;1.23;0.50;;;18.40;60.20;;;;;;5063266;28;20044;-64
2022/10/02 07:25:29;;;;;;;0.55;0.43;;;18.40;60.20;;;;;;5063381;28;20024;-63
2022/10/02 07:28:21;;;;;;;0.50;0.50;;;18.40;60.20;;;;;;5066813;28;20020;-64
2022/10/02 07:31:06;;;;;;;0.30;0.30;;;18.40;60.20;;;;;;5070009;28;20020;-64
2022/10/02 07:33:46;;;;;;;0.90;0.45;;;18.40;60.20;;;;;;5069908;28;20371;-62
2022/10/02 07:36:53;;;;;;;0.38;0.38;;;18.40;60.20;;;;;;5069940;28;20027;-64
2022/10/02 07:39:41;;;;;;;0.30;0.30;;;18.40;60.10;;;;;;5069953;28;20021;-64
2022/10/02 07:42:30;;;;;;;0.30;0.30;;;18.40;60.10;;;;;;5069958;28;20075;-64
2022/10/02 07:45:14;;;;;;;0.40;0.40;;;18.50;60.20;;;;;;5069855;28;20339;-61
2022/10/02 07:48:12;;;;;;;0.40;0.40;;;18.50;60.70;;;;;;5069878;28;20070;-63
2022/10/02 07:54:25;;;;;;;0.38;0.38;;;18.50;60.20;;;;;;5069758;28;20044;-63
2022/10/02 07:56:55;;;;;;;0.40;0.40;;;18.40;60.30;;;;;;5069769;28;20092;-65
2022/10/02 07:59:22;;;;;;;0.57;0.50;;;18.40;60.40;;;;;;5070002;28;20249;-64
2022/10/02 08:01:49;;;;;;;0.40;0.40;;;18.40;60.60;;;;;;5069714;28;20066;-64
2022/10/02 08:04:36;;;;;;;0.40;0.40;;;18.40;60.60;;;;;;5069693;28;20040;-64
2022/10/02 08:07:03;;;;;;;0.20;0.20;;;18.40;60.60;;;;;;5069722;28;20048;-63
2022/10/02 08:09:37;;;;;;;0.70;0.70;;;18.40;60.60;;;;;;5069699;28;20080;-65
2022/10/02 08:12:21;;;;;;;0.40;0.32;;;18.40;60.60;;;;;;5069625;28;20017;-64
2022/10/02 08:14:50;;;;;;;0.20;0.20;;;18.40;60.60;;;;;;5069581;28;20020;-64
2022/10/02 08:17:27;;;;;;;0.45;0.45;;;18.40;60.50;;;;;;5069567;28;20024;-64
2022/10/02 08:19:56;;;;;;;0.50;0.50;;;18.40;60.50;;;;;;5069576;28;20016;-64
2022/10/02 08:22:31;;;;;;;0.30;0.30;;;18.40;60.40;;;;;;5069395;28;20041;-64
2022/10/02 08:25:03;;;;;;;0.65;0.47;;;18.40;60.50;;;;;;5069551;28;20086;-64
2022/10/02 08:27:47;;;;;;;0.40;0.40;;;18.40;60.50;;;;;;5069486;28;20216;-64
2022/10/02 08:30:14;;;;;;;0.30;0.30;;;18.40;60.40;;;;;;5069467;28;20027;-64
2022/10/02 08:32:40;;;;;;;0.50;0.50;;;18.40;60.40;;;;;;5069466;28;20312;-63
2022/10/02 08:35:14;;;;;;;0.30;0.30;;;18.50;60.40;;;;;;5069367;28;20029;-64
2022/10/02 08:38:08;;;;;;;0.30;0.30;;;18.50;60.40;;;;;;5069365;28;20324;-64
2022/10/02 08:40:53;;;;;;;0.52;0.40;;;18.50;60.40;;;;;;5066271;28;20017;-65
2022/10/02 08:43:30;;;;;;;0.60;0.57;;;18.50;60.50;;;;;;5066216;28;20378;-63
2022/10/02 08:46:02;;;;;;;1.08;0.70;;;18.50;60.40;;;;;;5066100;28;20083;-64
2022/10/02 08:48:50;;;;;;;0.40;0.35;;;18.50;60.40;;;;;;5066086;28;20020;-65
2022/10/02 08:51:35;;;;;;;0.40;0.40;;;18.50;60.40;;;;;;5066087;28;20021;-65
2022/10/02 08:54:15;;;;;;;0.50;0.38;;;18.50;60.30;;;;;;5065942;28;20021;-63
2022/10/02 08:57:06;;;;;;;0.77;0.68;;;18.50;60.30;;;;;;5065975;28;20009;-64
2022/10/02 08:59:31;;;;;;;0.60;0.57;;;18.50;60.40;;;;;;5065892;28;20076;-64
2022/10/02 09:02:26;;;;;;;0.43;0.40;;;18.50;60.50;;;;;;5065853;28;20209;-64
2022/10/02 09:05:35;;;;;;;0.40;0.32;;;18.50;60.40;;;;;;5065779;28;20438;-64
2022/10/02 09:08:37;;;;;;;0.55;0.50;;;18.50;60.40;;;;;;4984938;28;20057;-64
2022/10/02 09:11:17;;;;;;;0.63;0.38;;;18.50;60.30;;;;;;4985009;28;20042;-64
2022/10/02 09:14:08;;;;;;;0.60;0.60;;;18.60;60.20;;;;;;5051401;28;20097;-64
2022/10/02 09:16:46;;;;;;;0.65;0.50;;;18.60;60.20;;;;;;5047822;28;20024;-63
2022/10/02 09:19:23;;;;;;;0.40;0.38;;;18.60;60.30;;;;;;5065548;28;20021;-65
2022/10/02 09:21:57;;;;;;;0.30;0.22;;;18.60;60.20;;;;;;5065322;28;20013;-65
2022/10/02 09:25:00;;;;;;;0.35;0.35;;;18.60;60.20;;;;;;5065461;28;20028;-64
2022/10/02 09:27:44;;;;;;;0.38;0.30;;;18.70;60.20;;;;;;5065343;28;20205;-64
2022/10/02 09:30:20;;;;;;;0.30;0.30;;;18.70;60.10;;;;;;5065377;28;20017;-63
2022/10/02 09:33:22;;;;;;;0.40;0.40;;;18.70;59.90;;;;;;5065273;28;20308;-64
2022/10/02 09:36:00;;;;;;;0.40;0.40;;;18.70;59.90;;;;;;5065248;28;20017;-65
2022/10/02 09:38:46;;;;;;;0.38;0.38;;;18.70;60.00;;;;;;5065184;28;20177;-64
2022/10/02 09:41:30;;;;;;;0.60;0.40;;;18.70;60.00;;;;;;5024201;28;20064;-64
2022/10/02 09:44:10;;;;;;;0.40;0.40;;;18.70;60.00;;;;;;5065065;28;20039;-65
2022/10/02 09:47:09;;;;;;;0.30;0.30;;;18.70;59.90;;;;;;5065035;28;20119;-63
2022/10/02 09:49:44;;;;;;;0.30;0.30;;;18.70;60.00;;;;;;5064966;28;20021;-64
2022/10/02 09:52:54;;;;;;;0.45;0.45;;;18.70;59.90;;;;;;5064560;28;20248;-65
2022/10/02 09:55:35;;;;;;;0.32;0.32;;;18.80;59.90;;;;;;5064748;28;20088;-64
2022/10/02 09:58:19;;;;;;;0.70;0.70;;;18.70;59.90;;;;;;5064813;28;20019;-63
2022/10/02 10:01:03;;;;;;;0.47;0.30;;;18.80;59.80;;;;;;5064709;28;20074;-64
2022/10/02 10:04:08;;;;;;;0.40;0.30;;;18.80;59.80;;;;;;5064706;28;20027;-63
2022/10/02 10:07:21;;;;;;;0.40;0.38;;;18.80;59.70;;;;;;4983885;28;20370;-64
2022/10/02 10:10:11;;;;;;;0.30;0.30;;;18.80;59.80;;;;;;5028921;28;20104;-64
2022/10/02 10:12:51;;;;;;;0.30;0.30;;;18.80;60.00;;;;;;5064514;28;20025;-64
2022/10/02 10:15:35;;;;;;;0.38;0.32;;;18.80;60.00;;;;;;5064380;28;20025;-64
2022/10/02 10:18:29;;;;;;;0.98;0.40;;;18.80;60.00;;;;;;5064367;28;20017;-64
2022/10/02 10:21:19;;;;;;;0.25;0.20;;;18.80;60.00;;;;;;5064379;28;20205;-64
2022/10/02 10:23:46;;;;;;;0.40;0.40;;;18.80;60.00;;;;;;5046415;28;20043;-63
2022/10/02 10:26:27;;;;;;;0.77;0.30;;;18.80;59.90;;;;;;5046480;28;20198;-63
2022/10/02 10:29:08;;;;;;;0.40;0.40;;;18.80;59.80;;;;;;5064172;28;20264;-63
2022/10/02 10:31:52;;;;;;;0.63;0.60;;;18.80;60.00;;;;;;5064186;28;20024;-64
2022/10/02 10:34:18;;;;;;;0.90;0.55;;;18.80;60.00;;;;;;5063997;28;20332;-62
2022/10/02 10:39:49;;;;;;;0.22;0.22;;;18.80;60.10;;;;;;5064083;28;20063;-64
2022/10/02 10:42:40;;;;;;;0.45;0.45;;;18.80;60.00;;;;;;5063959;28;20013;-65
2022/10/02 10:45:41;;;;;;;0.50;0.40;;;18.80;59.90;;;;;;5063907;28;20059;-63
2022/10/02 10:48:17;;;;;;;0.63;0.50;;;18.80;60.00;;;;;;5063846;28;20024;-65
2022/10/02 10:51:01;;;;;;;0.52;0.40;;;18.80;60.70;;;;;;5063785;28;20021;-64
2022/10/02 10:53:30;;;;;;;0.47;0.40;;;18.80;60.00;;;;;;5063683;28;20024;-65
2022/10/02 10:56:06;;;;;;;;;;;18.80;60.00;;;;;;5064124;28;20301;-65
2022/10/02 10:58:53;;;;;;;0.43;0.35;;;18.90;60.00;;;;;;5063699;28;19901;-65
2022/10/02 11:01:19;;;;;;;0.38;0.38;;;18.90;60.00;;;;;;5063542;28;20084;-63
2022/10/02 11:04:25;;;;;;;0.38;0.38;;;18.90;59.90;;;;;;5062945;28;20021;-64
2022/10/02 11:07:15;;;;;;;0.50;0.50;;;18.90;59.80;;;;;;5060599;28;20100;-63
2022/10/02 11:10:03;;;;;;;0.40;0.40;;;18.90;59.80;;;;;;5063590;28;20059;-65
2022/10/02 11:12:38;;;;;;;;;;;18.90;59.90;;;;;;5063972;28;20344;-65
2022/10/02 11:15:22;;;;;;;0.30;0.30;;;18.90;59.80;;;;;;5063442;28;19908;-63
2022/10/02 11:17:55;;;;;;;0.40;0.30;;;18.90;59.90;;;;;;5063453;28;20019;-64
2022/10/02 11:20:28;;;;;;;0.52;0.40;;;18.90;59.90;;;;;;5063423;28;20189;-64
2022/10/02 11:22:57;;;;;;;0.30;0.30;;;19.00;59.80;;;;;;5063252;28;20044;-63
2022/10/02 11:25:41;;;;;;;0.60;0.57;;;19.00;59.70;;;;;;5063366;28;20020;-63
2022/10/02 11:28:25;;;;;;;0.40;0.40;;;19.00;59.80;;;;;;5063367;28;20017;-63
2022/10/02 11:31:10;;;;;;;0.32;0.32;;;18.90;59.90;;;;;;5063339;28;20023;-63
2022/10/02 11:34:06;;;;;;;0.30;0.30;;;18.90;60.00;;;;;;5063266;28;20044;-65
2022/10/02 11:36:42;;;;;;;0.60;0.60;;;18.90;59.90;;;;;;5063278;28;20017;-64
2022/10/02 11:39:15;;;;;;;0.38;0.38;;;19.00;59.90;;;;;;5063287;28;20040;-65
2022/10/02 11:41:52;;;;;;;0.43;0.43;;;19.00;60.00;;;;;;5063274;28;20074;-64
2022/10/02 11:44:27;;;;;;;0.90;0.45;;;18.90;60.00;;;;;;5063253;28;20212;-64
2022/10/02 11:47:12;;;;;;;0.55;0.55;;;18.90;59.90;;;;;;5063007;28;20092;-59
2022/10/02 11:50:00;;;;;;;0.75;0.45;;;18.90;59.90;;;;;;5045452;28;20266;-63
2022/10/02 11:52:35;;;;;;;0.63;0.50;;;19.00;59.80;;;;;;5063137;28;20051;-64
2022/10/02 11:55:39;;;;;;;0.40;0.40;;;19.00;59.70;;;;;;5063031;28;20033;-64
2022/10/02 11:58:26;;;;;;;0.22;0.22;;;19.00;59.70;;;;;;5063116;28;20021;-63
2022/10/02 12:01:07;;;;;;;0.40;0.40;;;19.10;59.70;;;;;;5063090;28;20074;-63
2022/10/02 12:04:02;;;;;;;0.43;0.43;;;19.10;59.60;;;;;;5063046;28;20025;-64
2022/10/02 12:06:51;;;;;;;0.35;0.30;;;19.20;59.50;;;;;;5063010;28;20024;-65
2022/10/02 12:09:35;;;;;;;0.65;0.47;;;19.20;59.50;;;;;;5045273;28;20251;-64
2022/10/02 12:12:36;;;;;;;0.43;0.30;;;19.20;59.50;;;;;;5062923;28;20313;-64
2022/10/02 12:15:29;;;;;;;0.47;0.45;;;19.20;59.50;;;;;;5065998;28;20016;-64
2022/10/02 12:18:13;;;;;;;0.40;0.30;;;19.10;59.50;;;;;;5066676;28;20019;-65
2022/10/02 12:27:13;;;;;;;0.43;0.30;;;19.10;59.80;;;;;;5066572;28;20387;-64
2022/10/02 12:29:57;;;;;;;0.35;0.35;;;19.10;59.90;;;;;;5066521;28;20297;-65
2022/10/02 12:32:57;;;;;;;0.30;0.30;;;19.00;59.90;;;;;;5066469;28;20040;-64
2022/10/02 12:35:41;;;;;;;0.35;0.32;;;19.10;60.00;;;;;;5066348;28;20089;-64
2022/10/02 12:38:51;;;;;;;0.15;0.13;;;19.00;59.80;;;;;;5066332;28;20059;-64
2022/10/02 12:41:41;;;;;;;0.30;0.30;;;19.20;59.70;;;;;;5066238;28;20020;-64
2022/10/02 12:44:31;;;;;;;0.70;0.40;;;19.20;59.50;;;;;;5066199;28;20186;-64
2022/10/02 12:47:00;;;;;;;0.30;0.30;;;19.30;59.40;;;;;;5066133;28;20059;-64
2022/10/02 12:49:44;;;;;;;;;;;19.20;59.50;;;;;;5066549;28;20020;-65
2022/10/02 12:52:31;;;;;;;0.65;0.47;;;19.10;59.70;;;;;;5066328;28;19904;-64
2022/10/02 12:55:00;;;;;;;0.30;0.30;;;19.00;60.00;;;;;;5065957;28;20028;-64
2022/10/02 13:00:23;;;;;;;0.98;0.30;;;19.00;60.20;;;;;;5065931;28;20067;-64
2022/10/02 13:03:06;;;;;;;0.52;0.50;;;19.00;60.20;;;;;;5066099;28;20017;-64
2022/10/02 13:06:05;;;;;;;0.30;0.30;;;19.00;60.20;;;;;;5065824;28;20015;-63
2022/10/02 13:08:41;;;;;;;0.50;0.50;;;19.00;60.10;;;;;;5065787;28;20017;-63
2022/10/02 13:11:28;;;;;;;0.38;0.38;;;19.00;60.10;;;;;;5065654;28;20062;-64
2022/10/02 13:14:32;;;;;;;0.38;0.30;;;19.00;60.10;;;;;;5065897;28;20020;-65
2022/10/02 13:17:04;;;;;;;0.25;0.25;;;19.00;60.10;;;;;;5065573;28;20048;-64
2022/10/02 13:19:39;;;;;;;0.30;0.30;;;19.00;60.20;;;;;;5065818;28;20020;-65
2022/10/02 13:22:17;;;;;;;0.40;0.40;;;19.00;60.30;;;;;;5065334;28;20008;-64
2022/10/02 13:25:01;;;;;;;0.28;0.28;;;18.90;60.20;;;;;;5065042;28;20032;-63
2022/10/02 13:27:40;;;;;;;0.30;0.30;;;19.00;60.30;;;;;;5065590;28;20020;-63
2022/10/02 13:30:22;;;;;;;0.30;0.30;;;18.90;60.40;;;;;;5065386;28;20391;-63
2022/10/02 13:32:57;;;;;;;0.80;0.32;;;18.90;60.40;;;;;;5065215;28;20128;-63
2022/10/02 13:35:55;;;;;;;0.30;0.30;;;18.90;60.40;;;;;;5065172;28;20021;-64
2022/10/02 13:38:45;;;;;;;0.20;0.20;;;18.90;60.40;;;;;;5065240;28;20017;-64
2022/10/02 13:41:30;;;;;;;0.40;0.35;;;18.90;60.40;;;;;;5065168;28;20370;-64
2022/10/02 13:44:11;;;;;;;0.38;0.38;;;18.90;60.40;;;;;;5065382;28;20269;-65
2022/10/02 13:47:03;;;;;;;0.32;0.30;;;18.90;60.40;;;;;;5065078;28;20312;-65
2022/10/02 13:50:05;;;;;;;0.57;0.57;;;18.90;60.40;;;;;;5064975;28;20089;-65
2022/10/02 13:52:48;;;;;;;0.40;0.30;;;18.90;60.40;;;;;;5065183;28;20017;-63
2022/10/02 13:55:27;;;;;;;0.20;0.20;;;18.90;60.30;;;;;;5064779;28;20052;-63
2022/10/02 13:58:31;;;;;;;0.40;0.40;;;18.90;60.30;;;;;;5065106;28;20017;-64
2022/10/02 14:01:05;;;;;;;0.55;0.50;;;19.00;60.30;;;;;;5064765;28;20017;-63
2022/10/02 14:03:34;;;;;;;0.40;0.40;;;18.90;60.30;;;;;;5064720;28;20020;-65
2022/10/02 14:06:13;;;;;;;0.38;0.38;;;18.90;60.40;;;;;;5064897;28;20068;-65
2022/10/02 14:09:13;;;;;;;0.20;0.20;;;18.90;60.40;;;;;;5064581;28;20036;-65
2022/10/02 14:11:56;;;;;;;0.20;0.20;;;18.90;60.50;;;;;;5064580;28;20017;-64
2022/10/02 14:14:43;;;;;;;0.43;0.40;;;18.90;61.20;;;;;;5064471;28;20092;-65
2022/10/02 14:17:50;;;;;;;0.30;0.30;;;18.90;60.60;;;;;;5064435;28;20017;-62